< < Back
Terminal Aerodrome Forecast


Current Version              Previous Versions:   1  2  3  4  5  6  7  8  9  

Terminal Aerodrome Forecast

087
FTUS44 KMRX 261720
TAFCHA
TAF
KCHA 261720Z 2618/2718 32005KT P6SM SCT015 BKN025
      TEMPO 2618/2621 BKN015
     FM262100 33006KT P6SM SCT025 BKN040
     FM270600 36008KT P6SM BKN015
     FM271400 36012KT P6SM BKN025=



Latest METAR

777
SAUS80 KWBC 270000 RRE
MTRCHA
METAR KCHA 262353Z COR 34004KT 10SM FEW034 SCT160 BKN250 03/M03 A3011
RMK AO2 SLP201 4/001 T00331028 10056 20033 51029 $


USA.gov is the U.S. government's official web portal to all federal, state and local government web resources and services.